Time;durP1;ratioP1;P1;durP2;ratioP2;P2;SDS_P1;SDS_P2;PMS_P1;PMS_P2;Temp;Humidity;BMP_temperature;BMP_pressure;BME280_temperature;BME280_humidity;BME280_pressure;Samples;Min_cycle;Max_cycle;Signal;HPM_P1;HPM_P2
2022/10/30 00:01:03;;;;;;;25.70;10.77;;;;;14.00;96877.00;;;;10182197;23;20200;-79
2022/10/30 00:05:07;;;;;;;26.05;11.65;;;;;13.90;96868.00;;;;10184070;23;20209;-79
2022/10/30 00:09:10;;;;;;;29.15;10.65;;;;;13.80;96880.00;;;;10182721;23;20249;-78
2022/10/30 00:13:15;;;;;;;27.52;10.57;;;;;13.70;96875.00;;;;10184382;23;20198;-78
2022/10/30 00:17:48;;;;;;;22.00;10.75;;;;;13.70;96866.00;;;;10183507;23;20201;-78
2022/10/30 00:21:51;;;;;;;23.90;11.82;;;;;13.70;96870.00;;;;10184700;23;20193;-78
2022/10/30 00:25:54;;;;;;;20.42;11.10;;;;;13.60;96866.00;;;;10182617;23;20216;-78
2022/10/30 00:29:59;;;;;;;22.38;10.73;;;;;13.60;96869.00;;;;10184771;23;20202;-78
2022/10/30 00:34:33;;;;;;;30.45;11.18;;;;;13.60;96866.00;;;;10184418;23;20284;-78
2022/10/30 00:38:36;;;;;;;21.75;11.23;;;;;13.50;96871.00;;;;10136486;23;20518;-78
2022/10/30 00:42:39;;;;;;;27.90;11.65;;;;;13.60;96864.00;;;;10183185;23;20198;-78
2022/10/30 00:46:43;;;;;;;24.15;11.85;;;;;13.50;96859.00;;;;10183811;23;20628;-77
2022/10/30 00:51:18;;;;;;;22.65;11.45;;;;;13.50;96856.00;;;;10183327;23;20202;-80
2022/10/30 00:55:24;;;;;;;30.27;12.55;;;;;13.50;96858.00;;;;10141484;23;20237;-79
2022/10/30 00:59:32;;;;;;;23.67;12.35;;;;;13.50;96854.00;;;;10184508;23;20190;-79
2022/10/30 01:04:07;;;;;;;30.60;11.95;;;;;13.60;96844.00;;;;10185830;23;20198;-79
2022/10/30 01:08:10;;;;;;;27.42;12.93;;;;;13.60;96845.00;;;;10138558;23;20198;-79
2022/10/30 01:12:13;;;;;;;29.13;11.57;;;;;13.50;96838.00;;;;10186464;23;20194;-79
2022/10/30 01:16:35;;;;;;;25.95;11.93;;;;;13.50;96836.00;;;;10186361;23;20201;-79
2022/10/30 01:21:11;;;;;;;24.13;11.10;;;;;13.40;96827.00;;;;10186110;23;20244;-80
2022/10/30 01:25:29;;;;;;;23.05;11.40;;;;;13.30;96823.00;;;;10143260;23;20522;-79
2022/10/30 01:29:45;;;;;;;39.70;13.35;;;;;13.30;96822.00;;;;10182251;23;20198;-80
2022/10/30 01:34:00;;;;;;;28.35;14.23;;;;;13.50;96826.00;;;;10143242;23;20191;-79
2022/10/30 01:38:10;;;;;;;28.00;13.23;;;;;13.60;96820.00;;;;10184648;23;20256;-80
2022/10/30 01:42:45;;;;;;;27.02;13.05;;;;;13.60;96821.00;;;;10185504;23;20202;-80
2022/10/30 01:47:03;;;;;;;30.15;13.60;;;;;13.70;96817.00;;;;10185501;23;20202;-79
2022/10/30 01:51:15;;;;;;;26.70;12.02;;;;;13.70;96817.00;;;;10185254;23;20577;-78
2022/10/30 01:55:31;;;;;;;24.83;10.48;;;;;13.60;96817.00;;;;10141542;23;20191;-77
2022/10/30 01:59:37;;;;;;;26.73;10.63;;;;;13.50;96821.00;;;;10182536;23;20194;-79
2022/10/30 02:03:41;;;;;;;29.90;11.95;;;;;13.40;96815.00;;;;10185764;23;20194;-79
2022/10/30 02:08:17;;;;;;;23.38;10.73;;;;;13.30;96809.00;;;;10185690;23;20205;-79
2022/10/30 02:12:23;;;;;;;23.25;11.73;;;;;13.20;96816.00;;;;10185978;23;20198;-79
2022/10/30 02:16:26;;;;;;;31.10;12.57;;;;;13.10;96822.00;;;;10185308;23;20194;-78
2022/10/30 02:21:05;;;;;;;33.90;12.18;;;;;13.00;96818.00;;;;10185448;23;20198;-78
2022/10/30 02:25:09;;;;;;;21.40;11.18;;;;;13.00;96811.00;;;;10184238;23;20202;-78
2022/10/30 02:29:13;;;;;;;24.33;12.30;;;;;13.00;96815.00;;;;10185909;23;20235;-78
2022/10/30 02:33:16;;;;;;;37.80;12.38;;;;;13.00;96810.00;;;;10184725;23;20201;-77
2022/10/30 02:37:26;;;;;;;31.90;12.32;;;;;12.90;96808.00;;;;10185702;23;20197;-79
2022/10/30 02:41:29;;;;;;;26.75;11.50;;;;;12.90;96811.00;;;;10185118;23;20194;-78
2022/10/30 02:45:32;;;;;;;33.25;13.00;;;;;12.90;96808.00;;;;10185183;23;20202;-79
2022/10/30 02:49:35;;;;;;;32.35;13.32;;;;;12.90;96806.00;;;;10184957;23;20202;-79
2022/10/30 02:54:11;;;;;;;28.95;12.68;;;;;12.90;96810.00;;;;10184858;23;20611;-78
2022/10/30 02:58:16;;;;;;;30.13;12.85;;;;;12.90;96806.00;;;;10184035;23;20198;-78
2022/10/30 03:02:19;;;;;;;28.73;12.25;;;;;12.90;96809.00;;;;10184773;23;20243;-78
2022/10/30 03:06:56;;;;;;;30.25;12.65;;;;;12.80;96804.00;;;;10184778;23;20210;-78
2022/10/30 03:11:02;;;;;;;29.92;12.75;;;;;12.70;96803.00;;;;10184407;23;20261;-78
2022/10/30 03:15:07;;;;;;;34.65;12.20;;;;;12.60;96797.00;;;;10184680;23;20517;-78
2022/10/30 03:19:11;;;;;;;30.13;13.35;;;;;12.60;96793.00;;;;10183853;23;20333;-78
2022/10/30 03:23:14;;;;;;;35.63;13.00;;;;;12.70;96789.00;;;;10184336;23;20508;-78
2022/10/30 03:27:17;;;;;;;30.38;12.23;;;;;12.60;96792.00;;;;10184227;23;20205;-78
2022/10/30 03:31:55;;;;;;;30.02;12.65;;;;;12.50;96789.00;;;;10184492;23;20225;-79
2022/10/30 03:35:59;;;;;;;46.67;14.85;;;;;12.50;96797.00;;;;10183743;23;20237;-79
2022/10/30 03:40:02;;;;;;;31.45;13.77;;;;;12.50;96799.00;;;;10184743;23;20198;-79
2022/10/30 03:44:39;;;;;;;29.92;12.82;;;;;12.60;96795.00;;;;10183369;23;20200;-79
2022/10/30 03:49:17;;;;;;;22.92;11.05;;;;;12.50;96800.00;;;;10182439;23;20190;-79
2022/10/30 03:53:22;;;;;;;20.73;10.30;;;;;12.40;96793.00;;;;10183826;23;20201;-78
2022/10/30 03:57:28;;;;;;;36.85;11.30;;;;;12.40;96798.00;;;;10184219;23;20493;-78
2022/10/30 04:02:05;;;;;;;35.45;12.27;;;;;12.30;96800.00;;;;10184236;23;20576;-79
2022/10/30 04:06:44;;;;;;;30.98;11.65;;;;;12.20;96794.00;;;;10183863;23;20236;-80
2022/10/30 04:10:47;;;;;;;29.75;12.00;;;;;12.00;96790.00;;;;10184662;23;20197;-78
2022/10/30 04:15:21;;;;;;;37.05;13.68;;;;;12.00;96799.00;;;;10182826;23;20208;-77
2022/10/30 04:19:58;;;;;;;29.63;13.57;;;;;12.00;96800.00;;;;10183615;23;20194;-77
2022/10/30 04:24:02;;;;;;;31.05;12.80;;;;;12.10;96798.00;;;;10183809;23;20201;-77
2022/10/30 04:28:39;;;;;;;38.08;13.80;;;;;12.20;96794.00;;;;10185763;23;20560;-78
2022/10/30 04:32:46;;;;;;;30.80;13.25;;;;;12.20;96788.00;;;;10186555;23;20197;-77
2022/10/30 04:37:17;;;;;;;31.08;12.07;;;;;12.10;96782.00;;;;10188000;23;20208;-77
2022/10/30 04:41:22;;;;;;;35.70;13.32;;;;;12.00;96780.00;;;;10186808;23;20193;-77
2022/10/30 04:45:56;;;;;;;36.17;14.48;;;;;11.90;96782.00;;;;10185526;23;20193;-77
2022/10/30 04:49:59;;;;;;;30.90;13.98;;;;;11.80;96789.00;;;;10186968;23;20490;-78
2022/10/30 04:54:35;;;;;;;33.30;13.70;;;;;11.90;96784.00;;;;10185429;23;20223;-78
2022/10/30 04:58:40;;;;;;;31.70;14.00;;;;;11.90;96774.00;;;;10186781;23;20550;-78
2022/10/30 05:02:43;;;;;;;34.72;14.77;;;;;11.90;96769.00;;;;10186931;23;20205;-77
2022/10/30 05:07:19;;;;;;;33.90;13.50;;;;;11.90;96769.00;;;;10186487;23;20205;-77
2022/10/30 05:11:22;;;;;;;26.58;12.65;;;;;11.80;96767.00;;;;10143520;23;20558;-76
2022/10/30 05:16:01;;;;;;;33.00;13.77;;;;;11.70;96768.00;;;;10181281;23;20201;-76
2022/10/30 05:20:35;;;;;;;44.63;14.40;;;;;11.60;96769.00;;;;10137506;23;20202;-77
2022/10/30 05:25:12;;;;;;;33.45;12.68;;;;;11.50;96761.00;;;;10187053;23;20644;-76
2022/10/30 05:29:49;;;;;;;45.80;15.75;;;;;11.40;96753.00;;;;10186835;23;20193;-77
2022/10/30 05:34:25;;;;;;;33.25;13.98;;;;;11.40;96763.00;;;;10186863;23;20205;-78
2022/10/30 05:38:29;;;;;;;35.30;13.73;;;;;11.30;96755.00;;;;10185363;23;20196;-78
2022/10/30 05:43:07;;;;;;;33.10;12.40;;;;;11.20;96757.00;;;;10187151;23;20643;-77
2022/10/30 05:47:11;;;;;;;31.52;12.10;;;;;11.20;96760.00;;;;10185545;23;20201;-77
2022/10/30 05:51:48;;;;;;;34.25;11.73;;;;;11.10;96762.00;;;;10187151;23;20222;-79
2022/10/30 05:56:26;;;;;;;30.98;12.23;;;;;11.10;96760.00;;;;10186489;23;20224;-79
2022/10/30 06:00:31;;;;;;;38.80;13.57;;;;;11.00;96764.00;;;;10186790;23;20201;-78
2022/10/30 06:05:05;;;;;;;40.65;13.95;;;;;11.00;96774.00;;;;10185930;23;20194;-77
2022/10/30 06:09:41;;;;;;;34.53;13.60;;;;;11.00;96768.00;;;;10174971;23;20264;-76
2022/10/30 06:14:19;;;;;;;40.30;14.77;;;;;11.00;96769.00;;;;10180311;23;20249;-76
2022/10/30 06:18:23;;;;;;;36.83;14.50;;;;;11.10;96766.00;;;;10183698;23;20198;-76
2022/10/30 06:23:01;;;;;;;38.08;14.70;;;;;11.20;96772.00;;;;10186681;23;20197;-76
2022/10/30 06:27:38;;;;;;;50.90;16.55;;;;;11.40;96777.00;;;;10185004;23;20201;-78
2022/10/30 06:32:14;;;;;;;38.95;15.32;;;;;11.60;96781.00;;;;10185500;23;20198;-78
2022/10/30 06:36:19;;;;;;;43.67;15.02;;;;;11.70;96788.00;;;;10186026;23;20217;-77
2022/10/30 06:40:53;;;;;;;37.65;14.25;;;;;11.80;96790.00;;;;10184942;23;20233;-78
2022/10/30 06:44:56;;;;;;;33.63;13.45;;;;;12.00;96778.00;;;;10185126;23;20200;-74
2022/10/30 06:49:32;;;;;;;35.75;13.30;;;;;12.10;96787.00;;;;10185074;23;20209;-77
2022/10/30 06:54:11;;;;;;;28.85;12.52;;;;;12.10;96791.00;;;;10185343;23;20190;-77
2022/10/30 06:58:45;;;;;;;67.35;15.70;;;;;12.10;96781.00;;;;10184756;23;20806;-77
2022/10/30 07:02:55;;;;;;;27.80;13.07;;;;;12.20;96793.00;;;;10185928;23;20236;-76
2022/10/30 07:07:24;;;;;;;32.97;12.73;;;;;12.30;96794.00;;;;10184878;23;20236;-77
2022/10/30 07:12:02;;;;;;;29.63;12.32;;;;;12.50;96803.00;;;;10184531;23;20198;-75
2022/10/30 07:16:36;;;;;;;28.90;12.43;;;;;12.70;96793.00;;;;10184167;23;20197;-76
2022/10/30 07:21:13;;;;;;;29.25;12.77;;;;;12.90;96799.00;;;;10184550;23;20197;-76
2022/10/30 07:25:50;;;;;;;32.53;13.10;;;;;13.10;96806.00;;;;10183628;23;20473;-76
2022/10/30 07:29:55;;;;;;;19.60;10.57;;;;;13.30;96811.00;;;;10183842;23;20198;-76
2022/10/30 07:34:28;;;;;;;25.58;11.45;;;;;13.50;96808.00;;;;10184695;23;20643;-75
2022/10/30 07:38:31;;;;;;;18.65;10.02;;;;;13.80;96822.00;;;;10183169;23;20340;-76
2022/10/30 07:42:34;;;;;;;23.92;10.73;;;;;13.90;96810.00;;;;10185781;23;20516;-78
2022/10/30 07:47:12;;;;;;;23.73;11.05;;;;;14.20;96809.00;;;;10184919;23;20633;-77
2022/10/30 07:51:49;;;;;;;22.15;11.90;;;;;14.40;96815.00;;;;10183339;23;20233;-79
2022/10/30 07:55:52;;;;;;;26.05;11.55;;;;;14.70;96820.00;;;;10185561;23;20205;-79
2022/10/30 08:00:29;;;;;;;22.38;11.50;;;;;14.90;96814.00;;;;10183559;23;20289;-78
2022/10/30 08:04:34;;;;;;;21.88;12.05;;;;;15.10;96813.00;;;;10183895;23;20194;-79
2022/10/30 08:09:08;;;;;;;25.52;11.10;;;;;15.20;96823.00;;;;10183534;23;20202;-79
2022/10/30 08:13:13;;;;;;;28.83;10.73;;;;;15.40;96814.00;;;;10182942;23;20194;-80
2022/10/30 08:17:16;;;;;;;22.10;11.75;;;;;15.60;96814.00;;;;10183494;23;20206;-79
2022/10/30 08:21:20;;;;;;;30.65;11.98;;;;;15.80;96819.00;;;;10184495;23;20194;-80
2022/10/30 08:25:26;;;;;;;24.63;10.98;;;;;16.00;96810.00;;;;10183109;23;20703;-80
2022/10/30 08:29:29;;;;;;;22.50;10.15;;;;;16.20;96811.00;;;;10183736;23;20202;-80
2022/10/30 08:33:32;;;;;;;19.80;11.25;;;;;16.40;96812.00;;;;10135110;23;20322;-80
2022/10/30 08:38:10;;;;;;;19.23;9.07;;;;;16.50;96813.00;;;;10178097;23;20194;-80
2022/10/30 08:42:13;;;;;;;20.70;8.95;;;;;16.80;96813.00;;;;10182821;23;20194;-80
2022/10/30 08:46:50;;;;;;;20.08;10.32;;;;;16.90;96810.00;;;;10182560;23;20655;-80
2022/10/30 08:51:27;;;;;;;18.35;9.23;;;;;17.10;96818.00;;;;10120179;23;20191;-80
2022/10/30 08:55:32;;;;;;;17.20;8.77;;;;;17.40;96814.00;;;;10134002;23;20250;-80
2022/10/30 09:00:09;;;;;;;21.85;9.40;;;;;17.50;96811.00;;;;10135101;23;20199;-80
2022/10/30 09:04:12;;;;;;;14.20;7.85;;;;;17.60;96810.00;;;;10139055;23;20191;-80
2022/10/30 09:08:49;;;;;;;20.52;8.30;;;;;17.80;96808.00;;;;10180238;23;20612;-80
2022/10/30 09:12:56;;;;;;;17.17;8.05;;;;;17.90;96814.00;;;;10183482;23;20617;-81
2022/10/30 09:17:03;;;;;;;17.35;7.07;;;;;17.90;96809.00;;;;10180754;23;20228;-79
2022/10/30 09:21:06;;;;;;;12.80;8.35;;;;;17.90;96806.00;;;;10182371;23;20248;-80
2022/10/30 09:25:09;;;;;;;18.65;8.50;;;;;17.90;96812.00;;;;10186749;23;20194;-80
2022/10/30 09:29:48;;;;;;;13.35;7.10;;;;;17.90;96814.00;;;;10185285;23;20226;-79
2022/10/30 09:34:21;;;;;;;16.50;7.82;;;;;17.90;96818.00;;;;10121835;23;20199;-79
2022/10/30 09:38:59;;;;;;;13.80;7.15;;;;;18.10;96826.00;;;;10137628;23;20199;-80
2022/10/30 09:43:40;;;;;;;22.60;7.18;;;;;18.20;96818.00;;;;10133033;23;20186;-80
2022/10/30 09:48:26;;;;;;;22.65;8.00;;;;;18.40;96814.00;;;;10186282;23;20244;-78
2022/10/30 09:53:02;;;;;;;13.43;6.30;;;;;18.50;96811.00;;;;10186080;23;20190;-80
2022/10/30 09:57:32;;;;;;;17.33;8.50;;;;;18.70;96812.00;;;;10186673;23;20186;-81
2022/10/30 10:02:09;;;;;;;25.50;9.68;;;;;18.80;96808.00;;;;10184899;23;20190;-79
2022/10/30 10:06:44;;;;;;;16.23;7.45;;;;;18.90;96808.00;;;;10181451;23;20277;-79
2022/10/30 10:11:18;;;;;;;12.68;6.50;;;;;19.20;96803.00;;;;10155565;23;20234;-81
2022/10/30 10:15:55;;;;;;;11.57;6.43;;;;;19.30;96807.00;;;;10184018;23;20202;-79
2022/10/30 10:20:01;;;;;;;14.93;6.28;;;;;19.50;96806.00;;;;10185020;23;20557;-80
2022/10/30 10:24:38;;;;;;;9.90;5.93;;;;;19.60;96802.00;;;;10137087;23;20191;-80
2022/10/30 10:29:12;;;;;;;13.80;6.20;;;;;19.70;96809.00;;;;10140301;23;20195;-82
2022/10/30 10:38:54;;;;;;;14.43;5.30;;;;;20.00;96813.00;;;;10137042;23;20279;-81
2022/10/30 10:43:11;;;;;;;12.73;5.60;;;;;20.10;96814.00;;;;10184635;23;20190;-81
2022/10/30 10:47:34;;;;;;;15.10;5.63;;;;;20.10;96807.00;;;;10185232;23;20190;-81
2022/10/30 10:51:54;;;;;;;12.68;5.18;;;;;20.20;96805.00;;;;10184879;23;20541;-81
2022/10/30 10:55:59;;;;;;;14.57;5.43;;;;;20.30;96796.00;;;;10185580;23;20612;-82
2022/10/30 11:00:37;;;;;;;11.95;5.13;;;;;20.40;96791.00;;;;10184955;23;20201;-81
2022/10/30 11:04:43;;;;;;;16.73;5.80;;;;;20.50;96791.00;;;;10184812;23;20288;-81
2022/10/30 11:08:47;;;;;;;13.88;5.65;;;;;20.70;96782.00;;;;10185254;23;20202;-82
2022/10/30 11:13:23;;;;;;;15.50;6.13;;;;;20.80;96780.00;;;;10184254;23;20197;-83
2022/10/30 11:17:36;;;;;;;15.00;6.07;;;;;20.90;96782.00;;;;10184878;23;20249;-83
2022/10/30 11:21:44;;;;;;;17.48;5.43;;;;;21.10;96782.00;;;;10183880;23;20245;-82
2022/10/30 11:25:48;;;;;;;19.80;5.60;;;;;21.30;96778.00;;;;10184884;23;20206;-83
2022/10/30 11:29:54;;;;;;;14.30;5.20;;;;;21.50;96780.00;;;;10183952;23;20202;-83
2022/10/30 11:34:33;;;;;;;16.30;5.20;;;;;21.80;96780.00;;;;10184898;23;20229;-84
2022/10/30 11:38:37;;;;;;;19.98;5.30;;;;;22.10;96780.00;;;;10183988;23;20194;-83
2022/10/30 11:42:42;;;;;;;17.92;5.78;;;;;22.40;96777.00;;;;10184364;23;20542;-83
2022/10/30 11:46:46;;;;;;;12.63;4.85;;;;;22.40;96775.00;;;;10183692;23;20194;-84
2022/10/30 11:51:26;;;;;;;15.23;5.53;;;;;22.20;96778.00;;;;10183639;23;20213;-84
2022/10/30 11:55:36;;;;;;;15.20;5.05;;;;;22.20;96774.00;;;;10184149;23;20191;-83
2022/10/30 11:59:44;;;;;;;15.10;5.50;;;;;22.20;96769.00;;;;10183936;23;20592;-83
2022/10/30 12:03:47;;;;;;;10.82;4.82;;;;;22.30;96766.00;;;;10183931;23;20694;-84
2022/10/30 12:07:51;;;;;;;12.75;4.95;;;;;22.30;96762.00;;;;10184227;23;20198;-84
2022/10/30 12:12:31;;;;;;;13.95;5.30;;;;;22.20;96765.00;;;;10183126;23;20209;-84
2022/10/30 12:16:36;;;;;;;11.18;5.22;;;;;22.00;96759.00;;;;10183468;23;20190;-84
2022/10/30 12:20:39;;;;;;;14.80;5.43;;;;;21.90;96755.00;;;;10183433;23;20201;-85
2022/10/30 12:25:20;;;;;;;10.40;5.53;;;;;22.00;96756.00;;;;10183302;23;20201;-84
2022/10/30 12:29:35;;;;;;;16.60;5.97;;;;;22.10;96758.00;;;;10183131;23;20198;-84
2022/10/30 12:34:11;;;;;;;12.73;4.90;;;;;22.10;96757.00;;;;10183929;23;20229;-85
2022/10/30 12:38:36;;;;;;;18.23;5.05;;;;;22.20;96752.00;;;;10180881;23;20226;-84
2022/10/30 12:42:45;;;;;;;11.48;5.47;;;;;22.20;96747.00;;;;10184407;23;20194;-85
2022/10/30 12:46:56;;;;;;;10.77;6.00;;;;;22.20;96749.00;;;;10183214;23;20209;-82
2022/10/30 12:51:12;;;;;;;12.82;5.78;;;;;22.30;96744.00;;;;10186902;23;20210;-83
2022/10/30 12:55:25;;;;;;;16.85;6.47;;;;;22.30;96747.00;;;;10186217;23;20198;-82
2022/10/30 12:59:35;;;;;;;21.73;5.80;;;;;22.20;96733.00;;;;10187348;23;20202;-85
2022/10/30 13:03:48;;;;;;;16.95;6.38;;;;;22.20;96743.00;;;;10186711;23;20460;-85
2022/10/30 13:08:00;;;;;;;10.35;4.93;;;;;22.20;96741.00;;;;10186747;23;20198;-82
2022/10/30 13:12:09;;;;;;;17.35;5.60;;;;;22.30;96732.00;;;;10186370;23;20222;-83
2022/10/30 13:16:16;;;;;;;13.73;6.25;;;;;22.40;96729.00;;;;10185745;23;20194;-82
2022/10/30 13:20:22;;;;;;;18.20;5.47;;;;;22.40;96729.00;;;;10186138;23;20202;-83
2022/10/30 13:25:00;;;;;;;12.13;5.45;;;;;22.30;96731.00;;;;10183927;23;20644;-85
2022/10/30 13:29:37;;;;;;;18.40;5.43;;;;;22.20;96721.00;;;;10161990;23;20190;-87
2022/10/30 13:33:50;;;;;;;12.30;6.00;;;;;22.10;96720.00;;;;10174014;23;20549;-86
2022/10/30 13:38:25;;;;;;;18.35;6.78;;;;;22.10;96719.00;;;;10181790;23;20269;-84
2022/10/30 13:42:57;;;;;;;22.83;10.40;;;;;22.20;96711.00;;;;10121241;23;20252;-83
2022/10/30 13:47:12;;;;;;;18.45;5.88;;;;;22.30;96716.00;;;;10185432;23;20261;-84
2022/10/30 13:51:37;;;;;;;17.90;5.30;;;;;22.30;96714.00;;;;10184372;23;20201;-83
2022/10/30 13:55:43;;;;;;;9.43;5.60;;;;;22.30;96719.00;;;;10185805;23;20225;-86
2022/10/30 14:00:14;;;;;;;13.52;5.38;;;;;22.40;96713.00;;;;10184321;23;20200;-85
2022/10/30 14:04:24;;;;;;;13.40;5.35;;;;;22.40;96717.00;;;;10184790;23;20194;-86
2022/10/30 14:08:36;;;;;;;11.77;5.40;;;;;22.40;96720.00;;;;10184772;23;20198;-83
2022/10/30 14:13:14;;;;;;;13.80;5.13;;;;;22.40;96716.00;;;;10184274;23;20194;-86
2022/10/30 14:17:39;;;;;;;12.35;5.60;;;;;22.40;96715.00;;;;10184976;23;20609;-84
2022/10/30 14:22:15;;;;;;;11.93;5.15;;;;;22.40;96715.00;;;;10185006;23;20643;-83
2022/10/30 14:26:53;;;;;;;14.27;5.15;;;;;22.40;96712.00;;;;10185146;23;20194;-84
2022/10/30 14:31:35;;;;;;;12.60;4.90;;;;;22.30;96706.00;;;;10183237;23;20238;-85
2022/10/30 14:36:13;;;;;;;11.73;5.53;;;;;22.30;96716.00;;;;10183738;23;20613;-86
2022/10/30 14:40:37;;;;;;;15.52;5.65;;;;;22.20;96713.00;;;;10184772;23;20612;-84
2022/10/30 14:45:09;;;;;;;20.23;6.30;;;;;22.20;96719.00;;;;10183803;23;20487;-85
2022/10/30 14:49:46;;;;;;;12.20;5.65;;;;;22.10;96720.00;;;;10184876;23;20232;-78
2022/10/30 14:54:17;;;;;;;14.40;5.22;;;;;22.00;96722.00;;;;10184126;23;20214;-85
2022/10/30 14:58:24;;;;;;;16.85;6.72;;;;;21.90;96725.00;;;;10184374;23;20270;-85
2022/10/30 15:02:57;;;;;;;24.15;9.65;;;;;21.70;96726.00;;;;10183983;23;20194;-84
2022/10/30 15:07:07;;;;;;;16.25;6.47;;;;;21.50;96718.00;;;;10185267;23;20252;-85
2022/10/30 15:11:49;;;;;;;14.30;6.13;;;;;21.20;96730.00;;;;10181740;23;20202;-86
2022/10/30 15:16:16;;;;;;;10.98;5.88;;;;;20.80;96723.00;;;;10184042;23;20206;-87
2022/10/30 15:20:50;;;;;;;17.80;6.13;;;;;20.50;96718.00;;;;10183767;23;20186;-87
2022/10/30 15:25:23;;;;;;;16.63;6.40;;;;;20.20;96730.00;;;;10184469;23;20197;-88
2022/10/30 15:29:59;;;;;;;13.85;6.20;;;;;19.80;96723.00;;;;10182499;23;20205;-88
2022/10/30 15:34:03;;;;;;;25.83;7.45;;;;;19.40;96727.00;;;;10183535;23;20432;-88
2022/10/30 15:38:39;;;;;;;19.50;8.10;;;;;19.10;96733.00;;;;10184506;23;20487;-87
2022/10/30 15:43:16;;;;;;;18.70;7.88;;;;;18.80;96734.00;;;;10182729;23;20616;-79
2022/10/30 15:47:58;;;;;;;22.73;7.68;;;;;18.50;96735.00;;;;10183542;23;20197;-79
2022/10/30 15:52:04;;;;;;;18.52;7.25;;;;;18.30;96734.00;;;;10183725;23;20206;-78
2022/10/30 15:56:41;;;;;;;14.25;7.25;;;;;18.00;96728.00;;;;10183121;23;20253;-79
2022/10/30 16:01:24;;;;;;;17.33;6.75;;;;;17.80;96740.00;;;;10182675;23;20493;-78
2022/10/30 16:05:30;;;;;;;26.90;7.60;;;;;17.60;96733.00;;;;10184127;23;20197;-77
2022/10/30 16:09:33;;;;;;;16.30;8.27;;;;;17.40;96735.00;;;;10183204;23;20213;-78
2022/10/30 16:13:36;;;;;;;18.58;7.38;;;;;17.20;96733.00;;;;10183564;23;20194;-76
2022/10/30 16:18:19;;;;;;;19.40;7.25;;;;;16.80;96736.00;;;;10183402;23;20224;-78
2022/10/30 16:22:27;;;;;;;15.20;7.22;;;;;16.60;96734.00;;;;10183923;23;20190;-79
2022/10/30 16:27:02;;;;;;;16.60;7.43;;;;;16.30;96734.00;;;;10187368;23;20194;-78
2022/10/30 16:31:08;;;;;;;16.38;7.05;;;;;16.00;96727.00;;;;10188016;23;20279;-79
2022/10/30 16:35:12;;;;;;;21.85;8.90;;;;;15.80;96727.00;;;;10188089;23;20248;-83
2022/10/30 16:39:51;;;;;;;19.75;7.47;;;;;15.60;96725.00;;;;10186860;23;20261;-83
2022/10/30 16:44:26;;;;;;;20.55;8.25;;;;;15.70;96727.00;;;;10185658;23;20493;-81
2022/10/30 16:49:01;;;;;;;16.52;7.50;;;;;15.60;96739.00;;;;10186398;23;20230;-83
2022/10/30 16:53:05;;;;;;;23.23;8.55;;;;;15.60;96744.00;;;;10186246;23;20205;-83
2022/10/30 16:57:43;;;;;;;16.05;7.78;;;;;15.60;96748.00;;;;10182857;23;20205;-81
2022/10/30 17:01:53;;;;;;;20.13;8.52;;;;;15.50;96743.00;;;;10186060;23;20266;-81
2022/10/30 17:06:00;;;;;;;19.00;8.38;;;;;15.30;96743.00;;;;10186785;23;20633;-82
2022/10/30 17:10:34;;;;;;;18.20;8.00;;;;;15.10;96739.00;;;;10186593;23;20202;-82
2022/10/30 17:14:48;;;;;;;17.88;8.63;;;;;14.90;96747.00;;;;10185745;23;20206;-82
2022/10/30 17:19:33;;;;;;;22.85;10.23;;;;;14.80;96756.00;;;;10185892;23;20194;-78
2022/10/30 17:23:43;;;;;;;25.35;9.05;;;;;14.70;96754.00;;;;10163893;23;20194;-82
2022/10/30 17:27:49;;;;;;;22.73;9.52;;;;;14.70;96766.00;;;;10186167;23;20735;-82
2022/10/30 17:32:28;;;;;;;30.52;9.05;;;;;14.60;96768.00;;;;10186883;23;20205;-82
2022/10/30 17:36:31;;;;;;;23.67;11.23;;;;;14.60;96773.00;;;;10165277;23;20333;-79
2022/10/30 17:41:11;;;;;;;28.67;12.02;;;;;14.50;96780.00;;;;10184249;23;20198;-84
2022/10/30 17:45:45;;;;;;;26.42;10.30;;;;;14.30;96777.00;;;;10138315;23;20198;-87
2022/10/30 17:49:50;;;;;;;24.10;9.95;;;;;14.20;96777.00;;;;10184231;23;20190;-87
2022/10/30 17:54:23;;;;;;;26.98;10.20;;;;;14.00;96777.00;;;;10185724;23;20198;-80
2022/10/30 17:58:26;;;;;;;31.60;13.00;;;;;14.00;96774.00;;;;10184261;23;20190;-77
2022/10/30 18:02:30;;;;;;;25.92;11.90;;;;;14.00;96779.00;;;;10185523;23;20244;-76
2022/10/30 18:06:34;;;;;;;42.22;13.77;;;;;14.00;96768.00;;;;10185397;23;20197;-76
2022/10/30 18:11:10;;;;;;;25.23;12.35;;;;;13.80;96776.00;;;;10185219;23;20253;-78
2022/10/30 18:15:28;;;;;;;23.70;10.73;;;;;13.80;96772.00;;;;10185278;23;20194;-78
2022/10/30 18:19:59;;;;;;;28.42;14.27;;;;;13.80;96766.00;;;;10184293;23;20194;-77
2022/10/30 18:24:38;;;;;;;31.48;13.18;;;;;13.80;96765.00;;;;10185012;23;20528;-77
2022/10/30 18:29:11;;;;;;;33.72;13.43;;;;;13.70;96774.00;;;;10184796;23;20190;-77
2022/10/30 18:33:48;;;;;;;50.88;24.50;;;;;13.60;96786.00;;;;10186212;23;20217;-77
2022/10/30 18:38:25;;;;;;;30.83;13.73;;;;;13.60;96782.00;;;;10184706;23;20205;-77
2022/10/30 18:43:04;;;;;;;37.83;16.70;;;;;13.60;96790.00;;;;10135645;23;20198;-76
2022/10/30 18:47:39;;;;;;;40.85;17.73;;;;;13.60;96789.00;;;;10142498;23;20217;-77
2022/10/30 18:52:12;;;;;;;35.40;13.95;;;;;13.40;96790.00;;;;10183138;23;20202;-76
2022/10/30 18:56:49;;;;;;;38.10;15.52;;;;;13.20;96777.00;;;;10185110;23;20202;-76
2022/10/30 19:01:26;;;;;;;34.17;16.13;;;;;13.20;96782.00;;;;10185949;23;20190;-78
2022/10/30 19:05:34;;;;;;;36.08;15.73;;;;;13.10;96779.00;;;;10185375;23;20273;-76
2022/10/30 19:10:05;;;;;;;33.35;15.63;;;;;13.00;96771.00;;;;10179414;23;20193;-76
2022/10/30 19:14:39;;;;;;;34.65;15.32;;;;;12.90;96773.00;;;;10185967;23;20532;-76
2022/10/30 19:19:16;;;;;;;37.10;16.05;;;;;12.70;96766.00;;;;10183010;23;20205;-76
2022/10/30 19:23:55;;;;;;;51.78;22.98;;;;;12.60;96770.00;;;;10185309;23;20190;-75
2022/10/30 19:28:31;;;;;;;53.72;17.77;;;;;12.60;96771.00;;;;10184402;23;20194;-74
2022/10/30 19:33:04;;;;;;;30.05;14.82;;;;;12.50;96767.00;;;;10180559;23;20521;-76
2022/10/30 19:37:09;;;;;;;46.53;16.83;;;;;12.40;96769.00;;;;10184782;23;20190;-75
2022/10/30 19:41:13;;;;;;;49.78;18.80;;;;;12.30;96768.00;;;;10184325;23;20283;-77
2022/10/30 19:45:47;;;;;;;42.88;16.30;;;;;12.20;96760.00;;;;10185003;23;20273;-77
2022/10/30 19:50:25;;;;;;;46.28;16.95;;;;;12.10;96768.00;;;;10179283;23;20532;-76
2022/10/30 19:54:30;;;;;;;40.42;15.82;;;;;12.10;96768.00;;;;10182957;23;20220;-75
2022/10/30 19:59:05;;;;;;;36.25;14.65;;;;;12.00;96773.00;;;;10183951;23;20196;-76
2022/10/30 20:03:10;;;;;;;33.90;14.65;;;;;11.90;96772.00;;;;10183881;23;20202;-76
2022/10/30 20:07:13;;;;;;;28.55;13.38;;;;;11.80;96776.00;;;;10181743;23;20197;-75
2022/10/30 20:11:50;;;;;;;45.58;15.82;;;;;11.80;96772.00;;;;10184695;23;20212;-76
2022/10/30 20:15:56;;;;;;;39.03;15.38;;;;;11.80;96772.00;;;;10182689;23;20205;-76
2022/10/30 20:19:59;;;;;;;34.83;12.98;;;;;11.70;96782.00;;;;10183497;23;20244;-75
2022/10/30 20:24:03;;;;;;;40.55;16.10;;;;;11.60;96785.00;;;;10185256;23;20255;-76
2022/10/30 20:28:38;;;;;;;45.15;18.02;;;;;11.60;96780.00;;;;10180350;23;20208;-75
2022/10/30 20:33:14;;;;;;;43.03;16.33;;;;;11.60;96784.00;;;;10183321;23;20270;-76
2022/10/30 20:37:54;;;;;;;32.35;13.73;;;;;11.60;96787.00;;;;10183317;23;20197;-76
2022/10/30 20:41:57;;;;;;;32.75;12.48;;;;;11.50;96792.00;;;;10183782;23;20254;-76
2022/10/30 20:46:34;;;;;;;192.43;20.88;;;;;11.40;96793.00;;;;10182835;23;20213;-75
2022/10/30 20:51:13;;;;;;;31.67;12.55;;;;;11.40;96802.00;;;;10183830;23;20204;-75
2022/10/30 20:55:16;;;;;;;44.78;15.57;;;;;11.40;96791.00;;;;10183977;23;20572;-76
2022/10/30 20:59:20;;;;;;;41.42;14.57;;;;;11.30;96778.00;;;;10183962;23;20194;-76
2022/10/30 21:03:57;;;;;;;57.63;16.23;;;;;11.30;96782.00;;;;10184155;23;20206;-76
2022/10/30 21:08:05;;;;;;;39.25;15.55;;;;;11.30;96782.00;;;;10183031;23;20560;-76